Ясно но слегка туманно
Туман / низкие слоистые облака
Туман / низкие слоистые облака
Ясно с небольшим количеством низких облаков
Ясно с небольшим количеством низких облаков
Ясно с небольшим количеством низких облаков
Ясно и безоблачно
(°C)
13°
13°
13°
13°
13°
13°
14°
14°
16°
16°
18°
18°
19°
19°
(°C)
12°
12°
13°
14°
16°
18°
19°
ССВ
ССВ
ССВ
С
С
СЗ
ЗСЗ
(km/h)
2-7
2-7
2-8
2-8
2-8
3-9
5-11
(мм)
0
0
0
0
0
0
0
(%)
0
0
0
0
0
0
0

Высота солнцестояния

/ -18.2°
sun-icon
UV 8
06:14
19:21
Растущая луна (109°)
13:54
03:19

METAR для Сан-Диего (KSAN)

Время Условия Температура/
Точка росы
Ветер Видимость Погода Облачность Давление Изменить Необработанный
VFR 13.3°C / 11.7°C variable 0kt >10km - Few Clouds 200ft 1016 - KSAN 171051Z 00000KT 8SM FEW002 13/12 A3002 RMK AO2 SLP166 T01330117 $
VFR 12.8°C / 10.6°C variable 0kt >10km - Few Clouds 800ft 1016 - KSAN 170951Z 00000KT 10SM FEW008 13/11 A3003 RMK AO2 SLP168 T01280106 $
VFR 13.3°C / 11.1°C 330º 3kt >10km - Clear 1017 - KSAN 170851Z 33003KT 10SM CLR 13/11 A3004 RMK AO2 SLP173 T01330111 58002 $
VFR 13.9°C / 11.7°C variable 0kt >10km - Clear 1017 - KSAN 170751Z 00000KT 10SM CLR 14/12 A3004 RMK AO2 SLP173 T01390117 402110111 $
VFR 15°C / 12.2°C variable 0kt >10km - Clear 1017 - KSAN 170651Z 00000KT 10SM CLR 15/12 A3005 RMK AO2 SLP176 T01500122 $
VFR 15.6°C / 11.7°C variable 0kt >10km - Clear 1017 - KSAN 170551Z 00000KT 10SM CLR 16/12 A3005 RMK AO2 SLP175 T01560117 10211 20156 50009 $
VFR 15.6°C / 11.7°C 330º 3kt >10km - Clear 1017 - KSAN 170451Z 33003KT 10SM CLR 16/12 A3005 RMK AO2 SLP176 T01560117 $
VFR 16.1°C / 12.2°C 300º 4kt >10km - Clear 1017 - KSAN 170351Z 30004KT 10SM CLR 16/12 A3004 RMK AO2 SLP172 T01610122 $
VFR 17.2°C / 12.8°C 300º 4kt >10km - Few Clouds 25000ft 1016 - KSAN 170251Z 30004KT 10SM FEW250 17/13 A3002 RMK AO2 SLP166 T01720128 52011 $
VFR 18.3°C / 12.2°C 300º 5kt >10km - Clear 1016 - KSAN 170151Z 30005KT 10SM CLR 18/12 A3001 RMK AO2 SLP161 T01830122 $
VFR 20°C / 11.1°C 290º 9kt >10km - Clear 1015 - KSAN 170051Z 29009KT 10SM CLR 20/11 A3000 RMK AO2 SLP158 T02000111 $
VFR 20.6°C / 11.7°C 320º 9kt Gust 19kt >10km - Clear 1015 - KSAN 162351Z 32009G19KT 10SM CLR 21/12 A2999 RMK AO2 SLP154 T02060117 10211 20189 55005 $
VFR 20°C / 12.2°C 300º 10kt >10km - Clear 1015 - KSAN 162251Z 30010KT 10SM CLR 20/12 A2998 RMK AO2 SLP151 T02000122 $
VFR 20.6°C / 12.2°C 310º 11kt >10km - Clear 1015 - KSAN 162151Z 31011KT 10SM CLR 21/12 A2998 RMK AO2 SLP150 T02060122 $
VFR 20°C / 12.2°C 320º 8kt >10km - Clear 1015 - KSAN 162051Z 32008KT 10SM CLR 20/12 A3000 RMK AO2 SLP159 T02000122 56020 $
VFR 20.6°C / 11.7°C 310º 10kt Gust 17kt >10km - Clear 1016 - KSAN 161951Z 31010G17KT 10SM CLR 21/12 A3002 RMK AO2 SLP166 T02060117 $
VFR 21.1°C / 12.2°C 290º 8kt >10km - Clear 1017 - KSAN 161851Z 29008KT 10SM CLR 21/12 A3004 RMK AO2 SLP171 T02110122 $
VFR 19.4°C / 12.8°C 4kt >10km - Clear 1017 - KSAN 161751Z VRB04KT 10SM CLR 19/13 A3006 RMK AO2 SLP179 T01940128 10200 20111 50000 $
VFR 18.3°C / 11.7°C 290º 4kt >10km - Few Clouds 900ft 1018 - KSAN 161651Z 29004KT 10SM FEW009 18/12 A3006 RMK AO2 SLP180 T01830117 $
VFR 16.7°C / 11.7°C variable 0kt >10km - Few Clouds 900ft
Few Clouds 3000ft
1018 - KSAN 161551Z 00000KT 10SM FEW009 FEW030 17/12 A3006 RMK AO2 SLP180 T01670117 $
VFR 15°C / 11.1°C 160º 3kt >10km - Few Clouds 900ft
Few Clouds 2000ft
1017 - KSAN 161451Z 16003KT 10SM FEW009 FEW020 15/11 A3006 RMK AO2 SLP179 T01500111 51013 $
VFR 12.8°C / 10°C variable 0kt >10km - Scattered Clouds 900ft
Scattered Clouds 2000ft
1017 - KSAN 161351Z 00000KT 10SM SCT009 SCT020 13/10 A3006 RMK AO2 SLP179 T01280100 $
VFR 11.7°C / 9.4°C variable 0kt >10km - Few Clouds 900ft
Scattered Clouds 2000ft
- KSAN 161333Z 00000KT 10SM FEW009 SCT020 12/09 A3006 RMK AO2 T01170094 $
VFR 11.7°C / 8.9°C variable 0kt >10km - Few Clouds 2000ft 1017 - KSAN 161251Z 00000KT 10SM FEW020 12/09 A3004 RMK AO2 SLP171 T01170089 $

VFR

13.3°C / 11.7°C

[Больше]
Ветер variable 0kt
Видимость >10km
Погода -
Облачность Few Clouds 200ft
Давление 1016
Изменить -
Необработанный KSAN 171051Z 00000KT 8SM FEW002 13/12 A3002 RMK AO2 SLP166 T01330117 $

VFR

12.8°C / 10.6°C

[Больше]
Ветер variable 0kt
Видимость >10km
Погода -
Облачность Few Clouds 800ft
Давление 1016
Изменить -
Необработанный KSAN 170951Z 00000KT 10SM FEW008 13/11 A3003 RMK AO2 SLP168 T01280106 $

VFR

13.3°C / 11.1°C

[Больше]
Ветер 330º 3kt
Видимость >10km
Погода -
Облачность Clear
Давление 1017
Изменить -
Необработанный KSAN 170851Z 33003KT 10SM CLR 13/11 A3004 RMK AO2 SLP173 T01330111 58002 $

VFR

13.9°C / 11.7°C

[Больше]
Ветер variable 0kt
Видимость >10km
Погода -
Облачность Clear
Давление 1017
Изменить -
Необработанный KSAN 170751Z 00000KT 10SM CLR 14/12 A3004 RMK AO2 SLP173 T01390117 402110111 $

VFR

15°C / 12.2°C

[Больше]
Ветер variable 0kt
Видимость >10km
Погода -
Облачность Clear
Давление 1017
Изменить -
Необработанный KSAN 170651Z 00000KT 10SM CLR 15/12 A3005 RMK AO2 SLP176 T01500122 $

VFR

15.6°C / 11.7°C

[Больше]
Ветер variable 0kt
Видимость >10km
Погода -
Облачность Clear
Давление 1017
Изменить -
Необработанный KSAN 170551Z 00000KT 10SM CLR 16/12 A3005 RMK AO2 SLP175 T01560117 10211 20156 50009 $

VFR

15.6°C / 11.7°C

[Больше]
Ветер 330º 3kt
Видимость >10km
Погода -
Облачность Clear
Давление 1017
Изменить -
Необработанный KSAN 170451Z 33003KT 10SM CLR 16/12 A3005 RMK AO2 SLP176 T01560117 $

VFR

16.1°C / 12.2°C

[Больше]
Ветер 300º 4kt
Видимость >10km
Погода -
Облачность Clear
Давление 1017
Изменить -
Необработанный KSAN 170351Z 30004KT 10SM CLR 16/12 A3004 RMK AO2 SLP172 T01610122 $

VFR

17.2°C / 12.8°C

[Больше]
Ветер 300º 4kt
Видимость >10km
Погода -
Облачность Few Clouds 25000ft
Давление 1016
Изменить -
Необработанный KSAN 170251Z 30004KT 10SM FEW250 17/13 A3002 RMK AO2 SLP166 T01720128 52011 $

VFR

18.3°C / 12.2°C

[Больше]
Ветер 300º 5kt
Видимость >10km
Погода -
Облачность Clear
Давление 1016
Изменить -
Необработанный KSAN 170151Z 30005KT 10SM CLR 18/12 A3001 RMK AO2 SLP161 T01830122 $

VFR

20°C / 11.1°C

[Больше]
Ветер 290º 9kt
Видимость >10km
Погода -
Облачность Clear
Давление 1015
Изменить -
Необработанный KSAN 170051Z 29009KT 10SM CLR 20/11 A3000 RMK AO2 SLP158 T02000111 $

VFR

20.6°C / 11.7°C

[Больше]
Ветер 320º 9kt Gust 19kt
Видимость >10km
Погода -
Облачность Clear
Давление 1015
Изменить -
Необработанный KSAN 162351Z 32009G19KT 10SM CLR 21/12 A2999 RMK AO2 SLP154 T02060117 10211 20189 55005 $

VFR

20°C / 12.2°C

[Больше]
Ветер 300º 10kt
Видимость >10km
Погода -
Облачность Clear
Давление 1015
Изменить -
Необработанный KSAN 162251Z 30010KT 10SM CLR 20/12 A2998 RMK AO2 SLP151 T02000122 $

VFR

20.6°C / 12.2°C

[Больше]
Ветер 310º 11kt
Видимость >10km
Погода -
Облачность Clear
Давление 1015
Изменить -
Необработанный KSAN 162151Z 31011KT 10SM CLR 21/12 A2998 RMK AO2 SLP150 T02060122 $

VFR

20°C / 12.2°C

[Больше]
Ветер 320º 8kt
Видимость >10km
Погода -
Облачность Clear
Давление 1015
Изменить -
Необработанный KSAN 162051Z 32008KT 10SM CLR 20/12 A3000 RMK AO2 SLP159 T02000122 56020 $

VFR

20.6°C / 11.7°C

[Больше]
Ветер 310º 10kt Gust 17kt
Видимость >10km
Погода -
Облачность Clear
Давление 1016
Изменить -
Необработанный KSAN 161951Z 31010G17KT 10SM CLR 21/12 A3002 RMK AO2 SLP166 T02060117 $

VFR

21.1°C / 12.2°C

[Больше]
Ветер 290º 8kt
Видимость >10km
Погода -
Облачность Clear
Давление 1017
Изменить -
Необработанный KSAN 161851Z 29008KT 10SM CLR 21/12 A3004 RMK AO2 SLP171 T02110122 $

VFR

19.4°C / 12.8°C

[Больше]
Ветер 4kt
Видимость >10km
Погода -
Облачность Clear
Давление 1017
Изменить -
Необработанный KSAN 161751Z VRB04KT 10SM CLR 19/13 A3006 RMK AO2 SLP179 T01940128 10200 20111 50000 $

VFR

18.3°C / 11.7°C

[Больше]
Ветер 290º 4kt
Видимость >10km
Погода -
Облачность Few Clouds 900ft
Давление 1018
Изменить -
Необработанный KSAN 161651Z 29004KT 10SM FEW009 18/12 A3006 RMK AO2 SLP180 T01830117 $

VFR

16.7°C / 11.7°C

[Больше]
Ветер variable 0kt
Видимость >10km
Погода -
Облачность Few Clouds 900ft
Few Clouds 3000ft
Давление 1018
Изменить -
Необработанный KSAN 161551Z 00000KT 10SM FEW009 FEW030 17/12 A3006 RMK AO2 SLP180 T01670117 $

VFR

15°C / 11.1°C

[Больше]
Ветер 160º 3kt
Видимость >10km
Погода -
Облачность Few Clouds 900ft
Few Clouds 2000ft
Давление 1017
Изменить -
Необработанный KSAN 161451Z 16003KT 10SM FEW009 FEW020 15/11 A3006 RMK AO2 SLP179 T01500111 51013 $

VFR

12.8°C / 10°C

[Больше]
Ветер variable 0kt
Видимость >10km
Погода -
Облачность Scattered Clouds 900ft
Scattered Clouds 2000ft
Давление 1017
Изменить -
Необработанный KSAN 161351Z 00000KT 10SM SCT009 SCT020 13/10 A3006 RMK AO2 SLP179 T01280100 $

VFR

11.7°C / 9.4°C

[Больше]
Ветер variable 0kt
Видимость >10km
Погода -
Облачность Few Clouds 900ft
Scattered Clouds 2000ft
Давление
Изменить -
Необработанный KSAN 161333Z 00000KT 10SM FEW009 SCT020 12/09 A3006 RMK AO2 T01170094 $

VFR

11.7°C / 8.9°C

[Больше]
Ветер variable 0kt
Видимость >10km
Погода -
Облачность Few Clouds 2000ft
Давление 1017
Изменить -
Необработанный KSAN 161251Z 00000KT 10SM FEW020 12/09 A3004 RMK AO2 SLP171 T01170089 $

TAF для Сан-Диего (KSAN)

From till


From till Wind 3kt. Visibility 9700m. Scattered Clouds 600ft.
Temporarly from till Visibility 9700m. Mist . Broken Clouds 600ft.
From till Wind 290º 9kt. Visibility 9700m. Sky Clear.
From till Wind 4kt. Visibility 9700m. Scattered Clouds 1200ft.
From till Wind 3kt. Visibility 9700m. Overcast 1200ft.
From till Wind 4kt. Visibility 9700m. Scattered Clouds 1500ft. Broken Clouds 20000ft.

Необработанный: KSAN 171120Z 1712/1818 VRB03KT P6SM SCT006 TEMPO 1712/1716 6SM BR BKN006 FM171900 29009KT P6SM SKC FM180300 VRB04KT P6SM SCT012 FM180600 VRB03KT P6SM OVC012 FM181600 VRB04KT P6SM SCT015 BKN200

rainNOW: Прогноз дождя для Сан-Диего и окрестностей (радиус 25 км)

0.0 мм
0.0 мм
0.0 мм
0.0 мм
0.0 мм
0.0 мм
0.0 мм
0.0 мм
0.0 мм
0.0 мм
0.0 мм
0.0 мм

Радарный и сверхкраткосрочный прогноз осадков для Сан-Диего

Морось
Незначительные
Умеренные
Сильные
Очень Сильные
Град

Индикатор местности находится на Сан-Диего. Эта анимация показывает радар осадков для выбранного диапазона времени, а также 1h прогноз. Оранжевые кресты обозначают молнию. Данные предоставлены nowcast.de (доступны в США, Европе, Австралии). Морось или небольшой снег могут быть невидимы для радара. Интенсивность осадков имеет цветовую кодировку - от бирюзового до красного.

Текущие спутниковые изображения для Сан-Диего, США

Указатель местности находится на Сан-Диего. [Больше]

Спутниковое изображение в реальном времени сочетает в себе видимый свет в дневное время с инфракрасным излучением в ночное время. Ночью изображение получается не темным, так как инфракрасное излучение может обнаружить разницу температур. К сожалению, низкие облака и туман трудно отличить от температуры у поверхности земли и поэтому могут быть почти незаметны ночью. Спутниковые снимки Meteosat для Европы обновляются каждые 5 минут в режиме реального времени.Снимки GOES-16/GOES-17 (Северная и Южная Америка) и Химавари (Азия) обновляются каждые 10 минут.

Осадки оцениваются по данным радаров и спутников. Оценка осадков со спутников менее точна ночью, чем днем.

© 2024 meteoblue, NOAA Satellites GOES-16 and EUMETSAT. Данные о молниях предоставляются со стороны nowcast.

Обратно к последним данным
×
Привет,
похоже, что вы используете блокировщик рекламы.

Реклама необходима для поддержания нашего бесплатного сайта с уникальной детализацией и точностью.

Пожалуйста, внесите www.meteoblue.com в белый список вашего блокировщика рекламы или рассмотрите возможность покупки одного из наших продуктов:

У вас уже есть подписка?
Тогда, пожалуйста, логин.